sensor_id;sensor_type;location;lat;lon;timestamp;temperature;humidity
39503;DHT22;26970;49.900;10.774;2023-07-02T00:02:17;16.40;99.90
39503;DHT22;26970;49.900;10.774;2023-07-02T00:04:44;16.40;99.90
39503;DHT22;26970;49.900;10.774;2023-07-02T00:07:10;16.50;99.90
39503;DHT22;26970;49.900;10.774;2023-07-02T00:09:36;16.40;99.90
39503;DHT22;26970;49.900;10.774;2023-07-02T00:12:02;16.40;99.90
39503;DHT22;26970;49.900;10.774;2023-07-02T00:14:27;16.40;99.90
39503;DHT22;26970;49.900;10.774;2023-07-02T00:16:53;16.40;99.90
39503;DHT22;26970;49.900;10.774;2023-07-02T00:19:18;16.30;99.90
39503;DHT22;26970;49.900;10.774;2023-07-02T00:21:44;16.30;99.90
39503;DHT22;26970;49.900;10.774;2023-07-02T00:24:10;16.30;99.90
39503;DHT22;26970;49.900;10.774;2023-07-02T00:26:36;16.20;99.90
39503;DHT22;26970;49.900;10.774;2023-07-02T00:29:03;16.20;99.90
39503;DHT22;26970;49.900;10.774;2023-07-02T00:31:31;16.10;99.90
39503;DHT22;26970;49.900;10.774;2023-07-02T00:33:57;16.00;99.90
39503;DHT22;26970;49.900;10.774;2023-07-02T00:36:22;16.00;99.90
39503;DHT22;26970;49.900;10.774;2023-07-02T00:38:49;16.00;99.90
39503;DHT22;26970;49.900;10.774;2023-07-02T00:41:15;16.00;99.90
39503;DHT22;26970;49.900;10.774;2023-07-02T00:43:41;15.90;99.90
39503;DHT22;26970;49.900;10.774;2023-07-02T00:46:16;15.80;99.90
39503;DHT22;26970;49.900;10.774;2023-07-02T00:48:49;15.70;99.90
39503;DHT22;26970;49.900;10.774;2023-07-02T00:51:17;15.80;99.90
39503;DHT22;26970;49.900;10.774;2023-07-02T00:53:47;15.90;99.90
39503;DHT22;26970;49.900;10.774;2023-07-02T00:56:13;15.90;99.90
39503;DHT22;26970;49.900;10.774;2023-07-02T00:58:41;16.00;99.90
39503;DHT22;26970;49.900;10.774;2023-07-02T01:01:13;15.90;99.90
39503;DHT22;26970;49.900;10.774;2023-07-02T01:03:39;16.00;99.90
39503;DHT22;26970;49.900;10.774;2023-07-02T01:06:17;16.00;99.90
39503;DHT22;26970;49.900;10.774;2023-07-02T01:08:45;16.00;99.90
39503;DHT22;26970;49.900;10.774;2023-07-02T01:11:10;15.80;99.90
39503;DHT22;26970;49.900;10.774;2023-07-02T01:13:36;16.00;99.90
39503;DHT22;26970;49.900;10.774;2023-07-02T01:16:02;16.00;99.90
39503;DHT22;26970;49.900;10.774;2023-07-02T01:18:28;15.90;99.90
39503;DHT22;26970;49.900;10.774;2023-07-02T01:20:55;15.90;99.90
39503;DHT22;26970;49.900;10.774;2023-07-02T01:23:21;16.00;99.90
39503;DHT22;26970;49.900;10.774;2023-07-02T01:25:47;15.90;99.90
39503;DHT22;26970;49.900;10.774;2023-07-02T01:28:12;16.00;99.90
39503;DHT22;26970;49.900;10.774;2023-07-02T01:30:39;16.00;99.90
39503;DHT22;26970;49.900;10.774;2023-07-02T01:33:04;16.00;99.90
39503;DHT22;26970;49.900;10.774;2023-07-02T01:35:30;16.00;99.90
39503;DHT22;26970;49.900;10.774;2023-07-02T01:37:55;16.00;99.90
39503;DHT22;26970;49.900;10.774;2023-07-02T01:40:21;15.90;99.90
39503;DHT22;26970;49.900;10.774;2023-07-02T01:42:46;15.90;99.90
39503;DHT22;26970;49.900;10.774;2023-07-02T01:45:12;16.00;99.90
39503;DHT22;26970;49.900;10.774;2023-07-02T01:47:37;15.90;99.90
39503;DHT22;26970;49.900;10.774;2023-07-02T01:50:04;15.90;99.90
39503;DHT22;26970;49.900;10.774;2023-07-02T01:52:30;15.90;99.90
39503;DHT22;26970;49.900;10.774;2023-07-02T01:54:59;15.90;99.90
39503;DHT22;26970;49.900;10.774;2023-07-02T01:57:25;15.90;99.90
39503;DHT22;26970;49.900;10.774;2023-07-02T01:59:50;15.90;99.90
39503;DHT22;26970;49.900;10.774;2023-07-02T02:02:16;15.90;99.90
39503;DHT22;26970;49.900;10.774;2023-07-02T02:04:41;15.80;99.90
39503;DHT22;26970;49.900;10.774;2023-07-02T02:07:07;15.80;99.90
39503;DHT22;26970;49.900;10.774;2023-07-02T02:09:32;15.80;99.90
39503;DHT22;26970;49.900;10.774;2023-07-02T02:11:58;15.80;99.90
39503;DHT22;26970;49.900;10.774;2023-07-02T02:14:23;15.80;99.90
39503;DHT22;26970;49.900;10.774;2023-07-02T02:16:49;15.80;99.90
39503;DHT22;26970;49.900;10.774;2023-07-02T02:19:15;15.70;99.90
39503;DHT22;26970;49.900;10.774;2023-07-02T02:21:41;15.80;99.90
39503;DHT22;26970;49.900;10.774;2023-07-02T02:24:07;15.70;99.90
39503;DHT22;26970;49.900;10.774;2023-07-02T02:26:33;15.70;99.90
39503;DHT22;26970;49.900;10.774;2023-07-02T02:28:59;15.60;99.90
39503;DHT22;26970;49.900;10.774;2023-07-02T02:31:24;15.70;99.90
39503;DHT22;26970;49.900;10.774;2023-07-02T02:33:50;15.60;99.90
39503;DHT22;26970;49.900;10.774;2023-07-02T02:36:15;15.70;99.90
39503;DHT22;26970;49.900;10.774;2023-07-02T02:38:42;15.70;99.90
39503;DHT22;26970;49.900;10.774;2023-07-02T02:41:08;15.60;99.90
39503;DHT22;26970;49.900;10.774;2023-07-02T02:43:34;15.60;99.90
39503;DHT22;26970;49.900;10.774;2023-07-02T02:46:00;15.60;99.90
39503;DHT22;26970;49.900;10.774;2023-07-02T02:48:25;15.60;99.90
39503;DHT22;26970;49.900;10.774;2023-07-02T02:50:51;15.50;99.90
39503;DHT22;26970;49.900;10.774;2023-07-02T02:53:16;15.50;99.90
39503;DHT22;26970;49.900;10.774;2023-07-02T02:55:42;15.70;99.90
39503;DHT22;26970;49.900;10.774;2023-07-02T02:58:08;15.60;99.90
39503;DHT22;26970;49.900;10.774;2023-07-02T03:00:33;15.60;99.90
39503;DHT22;26970;49.900;10.774;2023-07-02T03:02:59;15.60;99.90
39503;DHT22;26970;49.900;10.774;2023-07-02T03:05:25;15.50;99.90
39503;DHT22;26970;49.900;10.774;2023-07-02T03:07:51;15.50;99.90
39503;DHT22;26970;49.900;10.774;2023-07-02T03:10:17;15.40;99.90
39503;DHT22;26970;49.900;10.774;2023-07-02T03:12:43;15.30;99.90
39503;DHT22;26970;49.900;10.774;2023-07-02T03:15:09;15.30;99.90
39503;DHT22;26970;49.900;10.774;2023-07-02T03:17:35;15.20;99.90
39503;DHT22;26970;49.900;10.774;2023-07-02T03:20:01;15.10;99.90
39503;DHT22;26970;49.900;10.774;2023-07-02T03:22:29;15.10;99.90
39503;DHT22;26970;49.900;10.774;2023-07-02T03:24:54;15.00;99.90
39503;DHT22;26970;49.900;10.774;2023-07-02T03:27:20;15.00;99.90
39503;DHT22;26970;49.900;10.774;2023-07-02T03:29:45;14.90;99.90
39503;DHT22;26970;49.900;10.774;2023-07-02T03:32:11;15.00;99.90
39503;DHT22;26970;49.900;10.774;2023-07-02T03:34:36;15.00;99.90
39503;DHT22;26970;49.900;10.774;2023-07-02T03:37:02;15.00;99.90
39503;DHT22;26970;49.900;10.774;2023-07-02T03:39:27;15.00;99.90
39503;DHT22;26970;49.900;10.774;2023-07-02T03:41:53;15.10;99.90
39503;DHT22;26970;49.900;10.774;2023-07-02T03:44:18;15.00;99.90
39503;DHT22;26970;49.900;10.774;2023-07-02T03:46:45;15.00;99.90
39503;DHT22;26970;49.900;10.774;2023-07-02T03:49:10;15.00;99.90
39503;DHT22;26970;49.900;10.774;2023-07-02T03:51:36;15.10;99.90
39503;DHT22;26970;49.900;10.774;2023-07-02T03:54:01;15.30;99.90
39503;DHT22;26970;49.900;10.774;2023-07-02T03:56:27;15.50;99.90
39503;DHT22;26970;49.900;10.774;2023-07-02T03:58:53;15.90;99.90
39503;DHT22;26970;49.900;10.774;2023-07-02T04:01:18;16.20;99.90
39503;DHT22;26970;49.900;10.774;2023-07-02T04:03:51;16.40;99.90
39503;DHT22;26970;49.900;10.774;2023-07-02T04:06:17;16.40;99.90
39503;DHT22;26970;49.900;10.774;2023-07-02T04:08:43;16.20;99.90
39503;DHT22;26970;49.900;10.774;2023-07-02T04:11:09;16.00;99.90
39503;DHT22;26970;49.900;10.774;2023-07-02T04:13:35;15.90;99.90
39503;DHT22;26970;49.900;10.774;2023-07-02T04:16:01;16.00;99.90
39503;DHT22;26970;49.900;10.774;2023-07-02T04:18:26;16.10;99.90
39503;DHT22;26970;49.900;10.774;2023-07-02T04:20:52;16.60;99.90
39503;DHT22;26970;49.900;10.774;2023-07-02T04:23:18;17.30;99.90
39503;DHT22;26970;49.900;10.774;2023-07-02T04:25:43;17.90;99.90
39503;DHT22;26970;49.900;10.774;2023-07-02T04:28:09;18.20;99.90
39503;DHT22;26970;49.900;10.774;2023-07-02T04:30:34;18.20;99.90
39503;DHT22;26970;49.900;10.774;2023-07-02T04:33:00;18.40;99.90
39503;DHT22;26970;49.900;10.774;2023-07-02T04:35:26;18.40;99.90
39503;DHT22;26970;49.900;10.774;2023-07-02T04:37:51;18.60;99.90
39503;DHT22;26970;49.900;10.774;2023-07-02T04:40:17;18.20;99.90
39503;DHT22;26970;49.900;10.774;2023-07-02T04:42:43;18.20;99.90
39503;DHT22;26970;49.900;10.774;2023-07-02T04:45:23;18.10;99.90
39503;DHT22;26970;49.900;10.774;2023-07-02T04:47:49;18.30;99.90
39503;DHT22;26970;49.900;10.774;2023-07-02T04:50:19;17.90;99.90
39503;DHT22;26970;49.900;10.774;2023-07-02T04:52:45;17.40;99.90
39503;DHT22;26970;49.900;10.774;2023-07-02T04:55:10;17.40;99.90
39503;DHT22;26970;49.900;10.774;2023-07-02T04:57:37;17.40;99.90
39503;DHT22;26970;49.900;10.774;2023-07-02T05:00:03;17.40;99.90
39503;DHT22;26970;49.900;10.774;2023-07-02T05:02:31;17.10;99.90
39503;DHT22;26970;49.900;10.774;2023-07-02T05:04:56;17.20;99.90
39503;DHT22;26970;49.900;10.774;2023-07-02T05:07:22;17.70;99.90
39503;DHT22;26970;49.900;10.774;2023-07-02T05:09:47;18.40;99.90
39503;DHT22;26970;49.900;10.774;2023-07-02T05:12:18;18.90;99.90
39503;DHT22;26970;49.900;10.774;2023-07-02T05:14:44;19.10;99.90
39503;DHT22;26970;49.900;10.774;2023-07-02T05:17:10;19.30;99.90
39503;DHT22;26970;49.900;10.774;2023-07-02T05:19:35;19.20;99.90
39503;DHT22;26970;49.900;10.774;2023-07-02T05:22:01;19.30;99.90
39503;DHT22;26970;49.900;10.774;2023-07-02T05:24:27;19.60;99.90
39503;DHT22;26970;49.900;10.774;2023-07-02T05:26:52;19.70;99.90
39503;DHT22;26970;49.900;10.774;2023-07-02T05:29:18;20.10;99.90
39503;DHT22;26970;49.900;10.774;2023-07-02T05:31:44;20.10;99.90
39503;DHT22;26970;49.900;10.774;2023-07-02T05:34:10;20.20;99.90
39503;DHT22;26970;49.900;10.774;2023-07-02T05:36:35;20.50;99.90
39503;DHT22;26970;49.900;10.774;2023-07-02T05:39:01;20.60;99.90
39503;DHT22;26970;49.900;10.774;2023-07-02T05:41:26;20.20;99.90
39503;DHT22;26970;49.900;10.774;2023-07-02T05:44:01;20.10;99.90
39503;DHT22;26970;49.900;10.774;2023-07-02T05:46:27;19.40;99.90
39503;DHT22;26970;49.900;10.774;2023-07-02T05:48:53;19.10;99.90
39503;DHT22;26970;49.900;10.774;2023-07-02T05:51:22;19.30;99.90
39503;DHT22;26970;49.900;10.774;2023-07-02T05:53:47;19.50;99.90
39503;DHT22;26970;49.900;10.774;2023-07-02T05:56:13;19.90;99.90
39503;DHT22;26970;49.900;10.774;2023-07-02T05:58:39;20.10;99.90
39503;DHT22;26970;49.900;10.774;2023-07-02T06:01:04;19.70;99.90
39503;DHT22;26970;49.900;10.774;2023-07-02T06:03:31;19.70;99.90
39503;DHT22;26970;49.900;10.774;2023-07-02T06:05:56;19.20;99.90
39503;DHT22;26970;49.900;10.774;2023-07-02T06:08:22;19.20;99.90
39503;DHT22;26970;49.900;10.774;2023-07-02T06:10:48;19.10;99.90
39503;DHT22;26970;49.900;10.774;2023-07-02T06:13:14;19.00;99.90
39503;DHT22;26970;49.900;10.774;2023-07-02T06:15:39;19.10;99.90
39503;DHT22;26970;49.900;10.774;2023-07-02T06:18:05;19.00;99.90
39503;DHT22;26970;49.900;10.774;2023-07-02T06:20:31;19.00;99.90
39503;DHT22;26970;49.900;10.774;2023-07-02T06:22:57;19.00;99.90
39503;DHT22;26970;49.900;10.774;2023-07-02T06:25:22;19.00;99.90
39503;DHT22;26970;49.900;10.774;2023-07-02T06:27:48;18.90;99.90
39503;DHT22;26970;49.900;10.774;2023-07-02T06:30:14;19.10;99.90
39503;DHT22;26970;49.900;10.774;2023-07-02T06:32:39;19.30;99.90
39503;DHT22;26970;49.900;10.774;2023-07-02T06:35:05;19.50;99.90
39503;DHT22;26970;49.900;10.774;2023-07-02T06:37:32;19.20;99.90
39503;DHT22;26970;49.900;10.774;2023-07-02T06:39:57;19.10;99.90
39503;DHT22;26970;49.900;10.774;2023-07-02T06:42:24;19.20;99.90
39503;DHT22;26970;49.900;10.774;2023-07-02T06:44:50;19.20;99.90
39503;DHT22;26970;49.900;10.774;2023-07-02T06:47:15;19.10;99.90
39503;DHT22;26970;49.900;10.774;2023-07-02T06:49:41;19.10;99.90
39503;DHT22;26970;49.900;10.774;2023-07-02T06:52:06;19.40;99.90
39503;DHT22;26970;49.900;10.774;2023-07-02T06:54:32;19.30;99.90
39503;DHT22;26970;49.900;10.774;2023-07-02T06:56:57;19.00;99.90
39503;DHT22;26970;49.900;10.774;2023-07-02T06:59:23;18.90;99.90
39503;DHT22;26970;49.900;10.774;2023-07-02T07:01:50;18.70;99.90
39503;DHT22;26970;49.900;10.774;2023-07-02T07:04:15;18.70;99.90
39503;DHT22;26970;49.900;10.774;2023-07-02T07:06:41;18.50;99.90
39503;DHT22;26970;49.900;10.774;2023-07-02T07:09:07;18.30;99.90
39503;DHT22;26970;49.900;10.774;2023-07-02T07:11:33;18.40;99.90
39503;DHT22;26970;49.900;10.774;2023-07-02T07:13:58;18.40;99.90
39503;DHT22;26970;49.900;10.774;2023-07-02T07:16:24;18.40;99.90
39503;DHT22;26970;49.900;10.774;2023-07-02T07:18:50;18.60;99.90
39503;DHT22;26970;49.900;10.774;2023-07-02T07:21:16;18.70;99.90
39503;DHT22;26970;49.900;10.774;2023-07-02T07:23:41;18.80;99.90
39503;DHT22;26970;49.900;10.774;2023-07-02T07:26:07;18.70;99.90
39503;DHT22;26970;49.900;10.774;2023-07-02T07:28:32;18.60;99.90
39503;DHT22;26970;49.900;10.774;2023-07-02T07:30:58;18.80;99.90
39503;DHT22;26970;49.900;10.774;2023-07-02T07:33:23;19.20;99.90
39503;DHT22;26970;49.900;10.774;2023-07-02T07:35:49;19.60;99.90
39503;DHT22;26970;49.900;10.774;2023-07-02T07:38:15;19.80;99.90
39503;DHT22;26970;49.900;10.774;2023-07-02T07:40:42;20.00;99.90
39503;DHT22;26970;49.900;10.774;2023-07-02T07:43:07;20.00;99.90
39503;DHT22;26970;49.900;10.774;2023-07-02T07:45:33;20.10;99.90
39503;DHT22;26970;49.900;10.774;2023-07-02T07:47:59;20.30;99.90
39503;DHT22;26970;49.900;10.774;2023-07-02T07:50:25;20.40;99.90
39503;DHT22;26970;49.900;10.774;2023-07-02T07:52:51;20.40;99.90
39503;DHT22;26970;49.900;10.774;2023-07-02T07:55:17;20.70;99.90
39503;DHT22;26970;49.900;10.774;2023-07-02T07:57:43;20.60;99.90
39503;DHT22;26970;49.900;10.774;2023-07-02T08:00:09;20.60;99.90
39503;DHT22;26970;49.900;10.774;2023-07-02T08:02:38;20.70;99.90
39503;DHT22;26970;49.900;10.774;2023-07-02T08:05:04;20.90;99.90
39503;DHT22;26970;49.900;10.774;2023-07-02T08:07:31;21.00;99.90
39503;DHT22;26970;49.900;10.774;2023-07-02T08:09:58;21.10;99.90
39503;DHT22;26970;49.900;10.774;2023-07-02T08:12:23;21.20;99.90
39503;DHT22;26970;49.900;10.774;2023-07-02T08:14:49;21.20;99.90
39503;DHT22;26970;49.900;10.774;2023-07-02T08:17:15;21.20;99.90
39503;DHT22;26970;49.900;10.774;2023-07-02T08:19:40;21.50;99.90
39503;DHT22;26970;49.900;10.774;2023-07-02T08:22:06;21.60;99.90
39503;DHT22;26970;49.900;10.774;2023-07-02T08:24:31;21.50;99.90
39503;DHT22;26970;49.900;10.774;2023-07-02T08:26:58;21.60;99.90
39503;DHT22;26970;49.900;10.774;2023-07-02T08:29:23;21.70;99.90
39503;DHT22;26970;49.900;10.774;2023-07-02T08:31:49;21.80;99.90
39503;DHT22;26970;49.900;10.774;2023-07-02T08:34:14;22.20;99.90
39503;DHT22;26970;49.900;10.774;2023-07-02T08:36:40;22.40;99.90
39503;DHT22;26970;49.900;10.774;2023-07-02T08:39:06;22.00;99.90
39503;DHT22;26970;49.900;10.774;2023-07-02T08:41:42;21.20;99.90
39503;DHT22;26970;49.900;10.774;2023-07-02T08:44:09;21.30;99.90
39503;DHT22;26970;49.900;10.774;2023-07-02T08:46:34;21.00;99.90
39503;DHT22;26970;49.900;10.774;2023-07-02T08:49:00;21.20;99.90
39503;DHT22;26970;49.900;10.774;2023-07-02T08:51:26;21.70;99.90
39503;DHT22;26970;49.900;10.774;2023-07-02T08:53:51;22.00;99.90
39503;DHT22;26970;49.900;10.774;2023-07-02T08:56:17;22.10;99.90
39503;DHT22;26970;49.900;10.774;2023-07-02T08:58:42;21.80;99.90
39503;DHT22;26970;49.900;10.774;2023-07-02T09:01:12;21.70;99.90
39503;DHT22;26970;49.900;10.774;2023-07-02T09:03:39;21.50;99.90
39503;DHT22;26970;49.900;10.774;2023-07-02T09:06:06;21.70;99.90
39503;DHT22;26970;49.900;10.774;2023-07-02T09:08:32;22.00;99.90
39503;DHT22;26970;49.900;10.774;2023-07-02T09:11:14;21.90;99.90
39503;DHT22;26970;49.900;10.774;2023-07-02T09:13:48;21.90;99.90
39503;DHT22;26970;49.900;10.774;2023-07-02T09:16:30;22.00;99.90
39503;DHT22;26970;49.900;10.774;2023-07-02T09:21:49;22.70;99.90
39503;DHT22;26970;49.900;10.774;2023-07-02T09:24:24;22.80;99.90
39503;DHT22;26970;49.900;10.774;2023-07-02T09:26:54;22.40;99.90
39503;DHT22;26970;49.900;10.774;2023-07-02T09:29:26;22.10;99.90
39503;DHT22;26970;49.900;10.774;2023-07-02T09:31:56;21.80;99.90
39503;DHT22;26970;49.900;10.774;2023-07-02T09:34:30;21.40;99.90
39503;DHT22;26970;49.900;10.774;2023-07-02T09:36:57;20.90;99.90
39503;DHT22;26970;49.900;10.774;2023-07-02T09:39:30;20.50;99.90
39503;DHT22;26970;49.900;10.774;2023-07-02T09:41:57;20.30;99.90
39503;DHT22;26970;49.900;10.774;2023-07-02T09:44:29;20.30;99.90
39503;DHT22;26970;49.900;10.774;2023-07-02T09:47:03;20.60;99.90
39503;DHT22;26970;49.900;10.774;2023-07-02T09:49:32;20.60;99.90
39503;DHT22;26970;49.900;10.774;2023-07-02T09:52:00;20.50;99.90
39503;DHT22;26970;49.900;10.774;2023-07-02T09:54:27;20.60;99.90
39503;DHT22;26970;49.900;10.774;2023-07-02T09:56:53;20.70;99.90
39503;DHT22;26970;49.900;10.774;2023-07-02T09:59:19;20.70;99.90
39503;DHT22;26970;49.900;10.774;2023-07-02T10:01:45;20.80;99.90
39503;DHT22;26970;49.900;10.774;2023-07-02T10:04:12;20.70;99.90
39503;DHT22;26970;49.900;10.774;2023-07-02T10:06:49;20.70;99.90
39503;DHT22;26970;49.900;10.774;2023-07-02T10:09:16;21.10;99.90
39503;DHT22;26970;49.900;10.774;2023-07-02T10:11:42;21.80;99.90
39503;DHT22;26970;49.900;10.774;2023-07-02T10:14:08;21.80;99.90
39503;DHT22;26970;49.900;10.774;2023-07-02T10:16:33;21.50;99.90
39503;DHT22;26970;49.900;10.774;2023-07-02T10:19:09;21.20;99.90
39503;DHT22;26970;49.900;10.774;2023-07-02T10:21:35;20.90;99.90
39503;DHT22;26970;49.900;10.774;2023-07-02T10:24:12;20.60;99.90
39503;DHT22;26970;49.900;10.774;2023-07-02T10:26:38;20.60;99.90
39503;DHT22;26970;49.900;10.774;2023-07-02T10:29:03;21.00;99.90
39503;DHT22;26970;49.900;10.774;2023-07-02T10:31:29;21.20;99.90
39503;DHT22;26970;49.900;10.774;2023-07-02T10:33:55;21.40;99.90
39503;DHT22;26970;49.900;10.774;2023-07-02T10:36:22;21.30;99.90
39503;DHT22;26970;49.900;10.774;2023-07-02T10:38:49;20.90;99.90
39503;DHT22;26970;49.900;10.774;2023-07-02T10:41:29;20.90;99.90
39503;DHT22;26970;49.900;10.774;2023-07-02T10:44:08;20.70;99.90
39503;DHT22;26970;49.900;10.774;2023-07-02T10:46:34;20.60;99.90
39503;DHT22;26970;49.900;10.774;2023-07-02T10:49:00;20.40;99.90
39503;DHT22;26970;49.900;10.774;2023-07-02T10:51:25;20.40;99.90
39503;DHT22;26970;49.900;10.774;2023-07-02T10:54:00;20.80;99.90
39503;DHT22;26970;49.900;10.774;2023-07-02T10:56:27;20.90;99.90
39503;DHT22;26970;49.900;10.774;2023-07-02T10:58:56;21.30;99.90
39503;DHT22;26970;49.900;10.774;2023-07-02T11:01:23;21.60;99.90
39503;DHT22;26970;49.900;10.774;2023-07-02T11:04:04;21.90;99.90
39503;DHT22;26970;49.900;10.774;2023-07-02T11:06:31;21.60;99.90
39503;DHT22;26970;49.900;10.774;2023-07-02T11:08:59;21.80;99.90
39503;DHT22;26970;49.900;10.774;2023-07-02T11:11:25;22.30;99.90
39503;DHT22;26970;49.900;10.774;2023-07-02T11:13:52;22.70;99.90
39503;DHT22;26970;49.900;10.774;2023-07-02T11:16:28;22.50;99.90
39503;DHT22;26970;49.900;10.774;2023-07-02T11:19:07;22.30;99.90
39503;DHT22;26970;49.900;10.774;2023-07-02T11:21:34;22.10;99.90
39503;DHT22;26970;49.900;10.774;2023-07-02T11:24:06;22.10;99.90
39503;DHT22;26970;49.900;10.774;2023-07-02T11:26:36;22.10;99.90
39503;DHT22;26970;49.900;10.774;2023-07-02T11:29:02;22.30;99.90
39503;DHT22;26970;49.900;10.774;2023-07-02T11:31:28;21.80;99.90
39503;DHT22;26970;49.900;10.774;2023-07-02T11:33:53;21.80;99.90
39503;DHT22;26970;49.900;10.774;2023-07-02T11:36:23;21.50;99.90
39503;DHT22;26970;49.900;10.774;2023-07-02T11:38:54;21.20;99.90
39503;DHT22;26970;49.900;10.774;2023-07-02T11:41:20;21.40;99.90
39503;DHT22;26970;49.900;10.774;2023-07-02T11:43:46;21.50;99.90
39503;DHT22;26970;49.900;10.774;2023-07-02T11:46:13;21.70;99.90
39503;DHT22;26970;49.900;10.774;2023-07-02T11:48:39;21.90;99.90
39503;DHT22;26970;49.900;10.774;2023-07-02T11:51:04;21.90;99.90
39503;DHT22;26970;49.900;10.774;2023-07-02T11:53:30;21.80;99.90
39503;DHT22;26970;49.900;10.774;2023-07-02T11:55:55;21.80;99.90
39503;DHT22;26970;49.900;10.774;2023-07-02T11:58:21;21.80;99.90
39503;DHT22;26970;49.900;10.774;2023-07-02T12:00:47;21.50;99.90
39503;DHT22;26970;49.900;10.774;2023-07-02T12:03:12;21.50;99.90
39503;DHT22;26970;49.900;10.774;2023-07-02T12:05:38;21.60;99.90
39503;DHT22;26970;49.900;10.774;2023-07-02T12:08:03;21.80;99.90
39503;DHT22;26970;49.900;10.774;2023-07-02T12:10:29;22.00;99.90
39503;DHT22;26970;49.900;10.774;2023-07-02T12:12:55;22.00;99.90
39503;DHT22;26970;49.900;10.774;2023-07-02T12:15:20;21.70;99.90
39503;DHT22;26970;49.900;10.774;2023-07-02T12:17:46;21.60;99.90
39503;DHT22;26970;49.900;10.774;2023-07-02T12:20:11;21.50;99.90
39503;DHT22;26970;49.900;10.774;2023-07-02T12:22:37;21.60;99.90
39503;DHT22;26970;49.900;10.774;2023-07-02T12:25:03;22.10;99.90
39503;DHT22;26970;49.900;10.774;2023-07-02T12:27:28;22.60;99.90
39503;DHT22;26970;49.900;10.774;2023-07-02T12:29:55;22.90;99.90
39503;DHT22;26970;49.900;10.774;2023-07-02T12:32:20;22.60;99.90
39503;DHT22;26970;49.900;10.774;2023-07-02T12:34:46;22.50;99.70
39503;DHT22;26970;49.900;10.774;2023-07-02T12:37:12;22.30;99.40
39503;DHT22;26970;49.900;10.774;2023-07-02T12:39:42;22.10;99.90
39503;DHT22;26970;49.900;10.774;2023-07-02T12:42:08;22.00;99.90
39503;DHT22;26970;49.900;10.774;2023-07-02T12:44:33;22.20;99.90
39503;DHT22;26970;49.900;10.774;2023-07-02T12:46:59;22.50;99.90
39503;DHT22;26970;49.900;10.774;2023-07-02T12:49:24;22.60;99.10
39503;DHT22;26970;49.900;10.774;2023-07-02T12:51:50;22.60;98.90
39503;DHT22;26970;49.900;10.774;2023-07-02T12:54:15;22.40;98.20
39503;DHT22;26970;49.900;10.774;2023-07-02T12:56:41;22.50;99.90
39503;DHT22;26970;49.900;10.774;2023-07-02T12:59:07;23.10;99.60
39503;DHT22;26970;49.900;10.774;2023-07-02T13:01:32;23.40;99.00
39503;DHT22;26970;49.900;10.774;2023-07-02T13:03:58;23.30;97.70
39503;DHT22;26970;49.900;10.774;2023-07-02T13:06:24;23.10;97.10
39503;DHT22;26970;49.900;10.774;2023-07-02T13:08:50;23.20;98.30
39503;DHT22;26970;49.900;10.774;2023-07-02T13:11:16;23.70;98.10
39503;DHT22;26970;49.900;10.774;2023-07-02T13:13:41;23.80;96.20
39503;DHT22;26970;49.900;10.774;2023-07-02T13:16:07;23.60;96.70
39503;DHT22;26970;49.900;10.774;2023-07-02T13:18:32;23.50;96.30
39503;DHT22;26970;49.900;10.774;2023-07-02T13:20:58;23.50;96.30
39503;DHT22;26970;49.900;10.774;2023-07-02T13:23:23;23.50;96.40
39503;DHT22;26970;49.900;10.774;2023-07-02T13:25:49;23.40;95.40
39503;DHT22;26970;49.900;10.774;2023-07-02T13:28:14;23.10;95.60
39503;DHT22;26970;49.900;10.774;2023-07-02T13:30:40;23.10;96.10
39503;DHT22;26970;49.900;10.774;2023-07-02T13:33:05;23.10;96.20
39503;DHT22;26970;49.900;10.774;2023-07-02T13:35:31;23.10;95.60
39503;DHT22;26970;49.900;10.774;2023-07-02T13:37:57;23.00;95.30
39503;DHT22;26970;49.900;10.774;2023-07-02T13:40:24;22.90;95.40
39503;DHT22;26970;49.900;10.774;2023-07-02T13:42:50;22.90;95.20
39503;DHT22;26970;49.900;10.774;2023-07-02T13:45:15;23.10;94.80
39503;DHT22;26970;49.900;10.774;2023-07-02T13:47:41;23.00;95.40
39503;DHT22;26970;49.900;10.774;2023-07-02T13:50:07;23.00;95.30
39503;DHT22;26970;49.900;10.774;2023-07-02T13:52:32;23.00;95.80
39503;DHT22;26970;49.900;10.774;2023-07-02T13:54:58;22.80;95.00
39503;DHT22;26970;49.900;10.774;2023-07-02T13:57:24;22.70;95.50
39503;DHT22;26970;49.900;10.774;2023-07-02T13:59:50;22.70;95.80
39503;DHT22;26970;49.900;10.774;2023-07-02T14:02:15;22.70;95.80
39503;DHT22;26970;49.900;10.774;2023-07-02T14:04:41;22.80;95.40
39503;DHT22;26970;49.900;10.774;2023-07-02T14:07:06;22.90;94.70
39503;DHT22;26970;49.900;10.774;2023-07-02T14:09:32;22.90;93.40
39503;DHT22;26970;49.900;10.774;2023-07-02T14:11:58;22.70;94.00
39503;DHT22;26970;49.900;10.774;2023-07-02T14:14:23;22.50;93.90
39503;DHT22;26970;49.900;10.774;2023-07-02T14:16:49;22.50;94.70
39503;DHT22;26970;49.900;10.774;2023-07-02T14:19:14;22.50;95.10
39503;DHT22;26970;49.900;10.774;2023-07-02T14:21:40;22.50;94.60
39503;DHT22;26970;49.900;10.774;2023-07-02T14:24:06;22.70;95.20
39503;DHT22;26970;49.900;10.774;2023-07-02T14:26:31;22.70;94.40
39503;DHT22;26970;49.900;10.774;2023-07-02T14:28:57;22.60;94.00
39503;DHT22;26970;49.900;10.774;2023-07-02T14:31:23;22.80;94.50
39503;DHT22;26970;49.900;10.774;2023-07-02T14:33:49;22.80;93.80
39503;DHT22;26970;49.900;10.774;2023-07-02T14:36:14;22.70;94.10
39503;DHT22;26970;49.900;10.774;2023-07-02T14:38:40;22.70;94.40
39503;DHT22;26970;49.900;10.774;2023-07-02T14:41:06;22.80;94.60
39503;DHT22;26970;49.900;10.774;2023-07-02T14:43:31;22.70;94.20
39503;DHT22;26970;49.900;10.774;2023-07-02T14:46:00;22.80;93.90
39503;DHT22;26970;49.900;10.774;2023-07-02T14:48:26;22.70;94.20
39503;DHT22;26970;49.900;10.774;2023-07-02T14:50:54;22.40;94.60
39503;DHT22;26970;49.900;10.774;2023-07-02T14:53:21;22.50;94.60
39503;DHT22;26970;49.900;10.774;2023-07-02T14:55:47;22.50;94.20
39503;DHT22;26970;49.900;10.774;2023-07-02T14:58:14;22.40;95.10
39503;DHT22;26970;49.900;10.774;2023-07-02T15:00:52;22.70;95.70
39503;DHT22;26970;49.900;10.774;2023-07-02T15:03:18;22.80;94.60
39503;DHT22;26970;49.900;10.774;2023-07-02T15:05:46;23.00;94.60
39503;DHT22;26970;49.900;10.774;2023-07-02T15:08:12;23.00;94.70
39503;DHT22;26970;49.900;10.774;2023-07-02T15:10:39;22.90;94.30
39503;DHT22;26970;49.900;10.774;2023-07-02T15:13:06;22.80;93.50
39503;DHT22;26970;49.900;10.774;2023-07-02T15:15:31;22.70;94.20